createdAt,value
2018-01-18T00:00:49.037Z,3.29
2018-01-18T00:01:49.071Z,3.28
2018-01-18T00:02:49.254Z,3.29
2018-01-18T00:03:49.026Z,3.31
2018-01-18T00:04:49.062Z,3.28
2018-01-18T00:05:49.275Z,3.29
2018-01-18T00:06:49.043Z,3.3
2018-01-18T00:07:49.110Z,3.29
2018-01-18T00:08:49.359Z,3.28
2018-01-18T00:09:49.171Z,3.28
2018-01-18T00:10:49.032Z,3.29
2018-01-18T00:11:49.082Z,3.28
2018-01-18T00:12:49.014Z,3.26
2018-01-18T00:13:49.053Z,3.25
2018-01-18T00:14:49.093Z,3.24
2018-01-18T00:15:49.159Z,3.24
2018-01-18T00:16:49.032Z,3.24
2018-01-18T00:17:49.071Z,3.23
2018-01-18T00:18:49.045Z,3.17
2018-01-18T00:19:49.156Z,3.16
2018-01-18T00:20:49.081Z,3.18
2018-01-18T00:21:49.019Z,3.19
2018-01-18T00:22:49.036Z,3.18
2018-01-18T00:23:49.085Z,3.18
2018-01-18T00:24:49.087Z,3.17
2018-01-18T00:25:49.181Z,3.14
2018-01-18T00:26:49.187Z,3.15
2018-01-18T00:27:49.111Z,3.14
2018-01-18T00:28:49.131Z,3.11
2018-01-18T00:29:49.131Z,3.11
2018-01-18T00:30:49.093Z,3.14
2018-01-18T00:31:49.097Z,3.13
2018-01-18T00:32:49.107Z,3.12
2018-01-18T00:33:49.139Z,3.14
2018-01-18T00:34:49.121Z,3.13
2018-01-18T00:35:49.116Z,3.14
2018-01-18T00:36:49.102Z,3.14
2018-01-18T00:37:49.741Z,3.14
2018-01-18T00:38:49.110Z,3.13
2018-01-18T00:39:49.100Z,3.1
2018-01-18T00:40:49.157Z,3.11
2018-01-18T00:41:49.127Z,3.13
2018-01-18T00:42:49.087Z,3.13
2018-01-18T00:43:49.151Z,3.13
2018-01-18T00:44:49.184Z,3.12
2018-01-18T00:45:49.231Z,3.11
2018-01-18T00:46:49.522Z,3.12
2018-01-18T00:47:49.086Z,3.13
2018-01-18T00:48:49.123Z,3.14
2018-01-18T00:49:49.109Z,3.16
2018-01-18T00:50:49.112Z,3.17
2018-01-18T00:51:49.146Z,3.16
2018-01-18T00:52:49.077Z,3.15
2018-01-18T00:53:49.257Z,3.16
2018-01-18T00:54:49.199Z,3.15
2018-01-18T00:55:49.227Z,3.17
2018-01-18T00:56:49.210Z,3.18
2018-01-18T00:57:49.124Z,3.18
2018-01-18T00:58:49.221Z,3.21
2018-01-18T00:59:49.125Z,3.22
2018-01-18T01:00:49.132Z,3.22
2018-01-18T01:01:49.139Z,3.21
2018-01-18T01:02:49.249Z,3.22
2018-01-18T01:03:49.135Z,3.23
2018-01-18T01:04:49.118Z,3.21
2018-01-18T01:05:49.165Z,3.2
2018-01-18T01:06:49.187Z,3.23
2018-01-18T01:07:49.319Z,3.25
2018-01-18T01:08:49.144Z,3.26
2018-01-18T01:09:49.147Z,3.26
2018-01-18T01:10:49.106Z,3.29
2018-01-18T01:11:49.192Z,3.28
2018-01-18T01:12:49.155Z,3.29
2018-01-18T01:13:49.235Z,3.28
2018-01-18T01:14:49.128Z,3.29
2018-01-18T01:15:49.132Z,3.29
2018-01-18T01:16:49.228Z,3.27
2018-01-18T01:17:49.148Z,3.3
2018-01-18T01:18:49.180Z,3.28
2018-01-18T01:19:49.138Z,3.3
2018-01-18T01:20:49.216Z,3.31
2018-01-18T01:21:49.154Z,3.32
2018-01-18T01:22:49.180Z,3.34
2018-01-18T01:23:49.129Z,3.34
2018-01-18T01:24:49.203Z,3.33
2018-01-18T01:25:49.284Z,3.35
2018-01-18T01:26:49.213Z,3.35
2018-01-18T01:27:49.253Z,3.36
2018-01-18T01:28:49.177Z,3.36
2018-01-18T01:29:49.198Z,3.35
2018-01-18T01:30:49.168Z,3.34
2018-01-18T01:31:49.216Z,3.35
2018-01-18T01:32:49.160Z,3.33
2018-01-18T01:33:49.258Z,3.35
2018-01-18T01:34:49.183Z,3.34
2018-01-18T01:35:49.175Z,3.35
2018-01-18T01:36:49.393Z,3.35
2018-01-18T01:37:49.181Z,3.33
2018-01-18T01:38:49.176Z,3.32
2018-01-18T01:39:49.242Z,3.32
2018-01-18T01:40:49.202Z,3.33
2018-01-18T01:41:49.221Z,3.34
2018-01-18T01:42:49.239Z,3.33
2018-01-18T01:43:49.229Z,3.31
2018-01-18T01:44:49.223Z,3.31
2018-01-18T01:45:49.252Z,3.32
2018-01-18T01:46:49.602Z,3.34
2018-01-18T01:47:49.228Z,3.33
2018-01-18T01:48:49.205Z,3.34
2018-01-18T01:49:49.299Z,3.33
2018-01-18T01:50:49.167Z,3.35
2018-01-18T01:51:49.223Z,3.35
2018-01-18T01:52:49.230Z,3.37
2018-01-18T01:53:49.206Z,3.37
2018-01-18T01:54:49.183Z,3.37
2018-01-18T01:55:49.251Z,3.38
2018-01-18T01:56:48.267Z,3.39
2018-01-18T01:57:48.249Z,3.38
2018-01-18T01:58:48.267Z,3.36
2018-01-18T01:59:48.238Z,3.37
2018-01-18T02:00:48.290Z,3.39
2018-01-18T02:01:48.718Z,3.37
2018-01-18T02:02:48.485Z,3.37
2018-01-18T02:03:48.247Z,3.37
2018-01-18T02:04:48.396Z,3.38
2018-01-18T02:05:48.364Z,3.38
2018-01-18T02:06:48.405Z,3.39
2018-01-18T02:07:48.220Z,3.38
2018-01-18T02:08:48.237Z,3.38
2018-01-18T02:09:48.339Z,3.39
2018-01-18T02:10:48.386Z,3.39
2018-01-18T02:11:48.395Z,3.4
2018-01-18T02:12:48.244Z,3.39
2018-01-18T02:13:48.246Z,3.42
2018-01-18T02:14:48.222Z,3.41
2018-01-18T02:15:48.330Z,3.43
2018-01-18T02:16:48.249Z,3.43
2018-01-18T02:17:48.231Z,3.45
2018-01-18T02:18:48.276Z,3.46
2018-01-18T02:19:48.302Z,3.45
2018-01-18T02:20:48.286Z,3.45
2018-01-18T02:21:48.276Z,3.45
2018-01-18T02:22:48.250Z,3.46
2018-01-18T02:23:48.320Z,3.47
2018-01-18T02:24:48.247Z,3.47
2018-01-18T02:25:48.343Z,3.48
2018-01-18T02:26:48.397Z,3.49
2018-01-18T02:27:48.324Z,3.49
2018-01-18T02:28:48.307Z,3.5
2018-01-18T02:29:48.373Z,3.49
2018-01-18T02:30:48.355Z,3.5
2018-01-18T02:31:48.358Z,3.5
2018-01-18T02:32:48.305Z,3.5
2018-01-18T02:33:48.417Z,3.52
2018-01-18T02:34:48.431Z,3.5
2018-01-18T02:35:48.287Z,3.51
2018-01-18T02:36:48.392Z,3.51
2018-01-18T02:37:48.346Z,3.51
2018-01-18T02:38:48.311Z,3.49
2018-01-18T02:39:48.262Z,3.5
2018-01-18T02:40:48.324Z,3.5
2018-01-18T02:41:48.317Z,3.49
2018-01-18T02:42:48.310Z,3.5
2018-01-18T02:43:48.320Z,3.5
2018-01-18T02:44:48.597Z,3.51
2018-01-18T02:45:48.281Z,3.52
2018-01-18T02:46:48.403Z,3.51
2018-01-18T02:47:48.279Z,3.53
2018-01-18T02:48:48.347Z,3.53
2018-01-18T02:49:48.404Z,3.51
2018-01-18T02:50:48.278Z,3.52
2018-01-18T02:51:48.305Z,3.52
2018-01-18T02:52:48.284Z,3.53
2018-01-18T02:53:48.459Z,3.53
2018-01-18T02:54:48.498Z,3.54
2018-01-18T02:55:48.352Z,3.55
2018-01-18T02:56:48.370Z,3.54
2018-01-18T02:57:48.277Z,3.56
2018-01-18T02:58:48.543Z,3.55
2018-01-18T02:59:48.446Z,3.54
2018-01-18T03:00:48.323Z,3.55
2018-01-18T03:01:48.602Z,3.55
2018-01-18T03:02:48.802Z,3.56
2018-01-18T03:03:48.380Z,3.57
2018-01-18T03:04:48.510Z,3.58
2018-01-18T03:05:48.441Z,3.57
2018-01-18T03:06:48.432Z,3.57
2018-01-18T03:07:48.365Z,3.57
2018-01-18T03:08:48.569Z,3.57
2018-01-18T03:09:48.494Z,3.58
2018-01-18T03:10:48.346Z,3.57
2018-01-18T03:11:48.502Z,3.58
2018-01-18T03:12:48.434Z,3.59
2018-01-18T03:13:48.314Z,3.6
2018-01-18T03:14:48.497Z,3.6
2018-01-18T03:15:48.324Z,3.61
2018-01-18T03:16:48.332Z,3.63
2018-01-18T03:17:48.483Z,3.64
2018-01-18T03:18:48.473Z,3.63
2018-01-18T03:19:48.326Z,3.64
2018-01-18T03:20:48.580Z,3.64
2018-01-18T03:21:48.374Z,3.65
2018-01-18T03:22:49.144Z,3.64
2018-01-18T03:23:48.320Z,3.65
2018-01-18T03:24:48.433Z,3.65
2018-01-18T03:25:48.410Z,3.67
2018-01-18T03:26:48.459Z,3.67
2018-01-18T03:27:48.313Z,3.67
2018-01-18T03:28:48.500Z,3.67
2018-01-18T03:29:48.360Z,3.67
2018-01-18T03:30:48.349Z,3.68
2018-01-18T03:31:48.441Z,3.68
2018-01-18T03:32:48.379Z,3.68
2018-01-18T03:33:48.392Z,3.68
2018-01-18T03:34:48.372Z,3.69
2018-01-18T03:35:48.368Z,3.69
2018-01-18T03:36:48.403Z,3.71
2018-01-18T03:37:48.461Z,3.71
2018-01-18T03:38:48.595Z,3.71
2018-01-18T03:39:48.361Z,3.72
2018-01-18T03:40:48.494Z,3.73
2018-01-18T03:41:48.374Z,3.74
2018-01-18T03:42:48.363Z,3.74
2018-01-18T03:43:48.467Z,3.74
2018-01-18T03:44:48.420Z,3.77
2018-01-18T03:45:48.390Z,3.75
2018-01-18T03:48:48.368Z,3.78
2018-01-18T03:49:48.465Z,3.79
2018-01-18T03:50:48.397Z,3.79
2018-01-18T03:51:48.738Z,3.8
2018-01-18T03:52:48.393Z,3.79
2018-01-18T03:53:48.358Z,3.8
2018-01-18T03:54:48.365Z,3.8
2018-01-18T03:55:48.392Z,3.82
2018-01-18T03:56:48.512Z,3.84
2018-01-18T03:57:48.407Z,3.85
2018-01-18T03:58:48.481Z,3.85
2018-01-18T03:59:49.102Z,3.84
2018-01-18T04:00:48.443Z,3.85
2018-01-18T04:01:48.395Z,3.84
2018-01-18T04:02:48.482Z,3.87
2018-01-18T04:03:49.099Z,3.87
2018-01-18T04:04:48.426Z,3.87
2018-01-18T04:05:48.506Z,3.89
2018-01-18T04:06:48.413Z,3.88
2018-01-18T04:07:48.396Z,3.89
2018-01-18T04:08:48.393Z,3.89
2018-01-18T04:09:48.399Z,3.9
2018-01-18T04:10:48.414Z,3.9
2018-01-18T04:11:48.463Z,3.9
2018-01-18T04:12:48.492Z,3.9
2018-01-18T04:13:48.542Z,3.9
2018-01-18T04:14:48.475Z,3.9
2018-01-18T04:15:48.424Z,3.9
2018-01-18T04:16:48.425Z,3.92
2018-01-18T04:17:48.592Z,3.91
2018-01-18T04:18:48.409Z,3.91
2018-01-18T04:19:48.410Z,3.9
2018-01-18T04:20:48.512Z,3.91
2018-01-18T04:21:48.418Z,3.92
2018-01-18T04:22:48.435Z,3.91
2018-01-18T04:23:49.054Z,3.91
2018-01-18T04:24:48.500Z,3.9
2018-01-18T04:25:48.435Z,3.89
2018-01-18T04:26:48.468Z,3.9
2018-01-18T04:27:48.441Z,3.9
2018-01-18T04:28:48.494Z,3.9
2018-01-18T04:29:48.491Z,3.88
2018-01-18T04:30:48.482Z,3.87
2018-01-18T04:31:48.462Z,3.85
2018-01-18T04:32:48.425Z,3.84
2018-01-18T04:33:48.565Z,3.85
2018-01-18T04:34:48.526Z,3.82
2018-01-18T04:35:48.433Z,3.82
2018-01-18T04:36:48.497Z,3.81
2018-01-18T04:37:48.487Z,3.81
2018-01-18T04:38:48.549Z,3.81
2018-01-18T04:39:48.516Z,3.81
2018-01-18T04:40:49.126Z,3.8
2018-01-18T04:41:48.421Z,3.79
2018-01-18T04:42:48.566Z,3.8
2018-01-18T04:43:48.485Z,3.78
2018-01-18T04:44:48.541Z,3.79
2018-01-18T04:45:48.444Z,3.78
2018-01-18T04:46:49.064Z,3.77
2018-01-18T04:47:48.469Z,3.75
2018-01-18T04:48:50.934Z,3.75
2018-01-18T04:49:48.513Z,3.75
2018-01-18T04:50:48.468Z,3.72
2018-01-18T04:51:49.747Z,3.73
2018-01-18T04:52:48.448Z,3.72
2018-01-18T04:53:48.468Z,3.73
2018-01-18T04:54:48.511Z,3.72
2018-01-18T04:55:48.543Z,3.72
2018-01-18T04:56:48.546Z,3.7
2018-01-18T04:57:48.513Z,3.72
2018-01-18T04:58:48.503Z,3.71
2018-01-18T04:59:48.569Z,3.72
2018-01-18T05:00:48.495Z,3.7
2018-01-18T05:01:48.768Z,3.71
2018-01-18T05:02:48.500Z,3.69
2018-01-18T05:03:48.569Z,3.7
2018-01-18T05:04:48.614Z,3.7
2018-01-18T05:05:48.489Z,3.72
2018-01-18T05:06:48.574Z,3.72
2018-01-18T05:07:50.628Z,3.73
2018-01-18T05:08:48.512Z,3.73
2018-01-18T05:09:48.522Z,3.72
2018-01-18T05:10:48.553Z,3.73
2018-01-18T05:11:48.620Z,3.71
2018-01-18T05:12:48.516Z,3.71
2018-01-18T05:13:48.508Z,3.72
2018-01-18T05:14:48.596Z,3.72
2018-01-18T05:15:48.612Z,3.71
2018-01-18T05:16:48.515Z,3.71
2018-01-18T05:17:48.776Z,3.71
2018-01-18T05:18:48.474Z,3.72
2018-01-18T05:19:48.646Z,3.74
2018-01-18T05:20:49.023Z,3.72
2018-01-18T05:21:48.689Z,3.72
2018-01-18T05:22:48.831Z,3.73
2018-01-18T05:23:48.502Z,3.74
2018-01-18T05:24:48.609Z,3.73
2018-01-18T05:25:48.592Z,3.73
2018-01-18T05:26:48.620Z,3.71
2018-01-18T05:27:48.645Z,3.73
2018-01-18T05:28:48.570Z,3.73
2018-01-18T05:29:48.556Z,3.75
2018-01-18T05:30:48.543Z,3.74
2018-01-18T05:31:48.608Z,3.73
2018-01-18T05:32:48.617Z,3.73
2018-01-18T05:33:48.557Z,3.73
2018-01-18T05:34:48.540Z,3.73
2018-01-18T05:35:48.588Z,3.73
2018-01-18T05:36:48.578Z,3.71
2018-01-18T05:37:48.537Z,3.71
2018-01-18T05:38:48.641Z,3.72
2018-01-18T05:39:48.538Z,3.72
2018-01-18T05:40:48.526Z,3.71
2018-01-18T05:41:48.515Z,3.7
2018-01-18T05:42:48.542Z,3.71
2018-01-18T05:43:48.523Z,3.72
2018-01-18T05:44:48.755Z,3.7
2018-01-18T05:45:48.680Z,3.72
2018-01-18T05:46:48.537Z,3.72
2018-01-18T05:47:48.542Z,3.72
2018-01-18T05:48:48.544Z,3.72
2018-01-18T05:49:48.577Z,3.72
2018-01-18T05:50:48.506Z,3.73
2018-01-18T05:51:48.570Z,3.73
2018-01-18T05:52:48.524Z,3.73
2018-01-18T05:53:48.516Z,3.73
2018-01-18T05:54:48.561Z,3.72
2018-01-18T05:55:48.524Z,3.71
2018-01-18T05:56:48.615Z,3.71
2018-01-18T05:57:48.722Z,3.7
2018-01-18T05:58:48.723Z,3.71
2018-01-18T05:59:48.583Z,3.71
2018-01-18T06:00:48.563Z,3.7
2018-01-18T06:01:48.674Z,3.69
2018-01-18T06:02:48.580Z,3.69
2018-01-18T06:03:48.560Z,3.69
2018-01-18T06:04:48.578Z,3.69
2018-01-18T06:05:48.790Z,3.69
2018-01-18T06:06:48.678Z,3.67
2018-01-18T06:07:48.701Z,3.66
2018-01-18T06:08:48.576Z,3.66
2018-01-18T06:09:48.692Z,3.67
2018-01-18T06:10:48.654Z,3.67
2018-01-18T06:11:48.622Z,3.66
2018-01-18T06:12:48.689Z,3.64
2018-01-18T06:13:48.644Z,3.63
2018-01-18T06:14:48.663Z,3.63
2018-01-18T06:15:48.637Z,3.63
2018-01-18T06:16:48.728Z,3.64
2018-01-18T06:17:48.574Z,3.66
2018-01-18T06:18:48.601Z,3.66
2018-01-18T06:19:49.264Z,3.65
2018-01-18T06:20:48.576Z,3.65
2018-01-18T06:21:48.593Z,3.66
2018-01-18T06:22:48.791Z,3.65
2018-01-18T06:23:48.565Z,3.67
2018-01-18T06:24:48.601Z,3.69
2018-01-18T06:25:48.845Z,3.68
2018-01-18T06:26:48.987Z,3.69
2018-01-18T06:27:48.629Z,3.7
2018-01-18T06:28:48.629Z,3.7
2018-01-18T06:29:48.636Z,3.7
2018-01-18T06:30:49.486Z,3.71
2018-01-18T06:31:48.648Z,3.71
2018-01-18T06:32:48.671Z,3.71
2018-01-18T06:33:48.679Z,3.71
2018-01-18T06:34:49.352Z,3.71
2018-01-18T06:35:48.627Z,3.72
2018-01-18T06:36:48.672Z,3.73
2018-01-18T06:37:49.028Z,3.73
2018-01-18T06:38:48.643Z,3.74
2018-01-18T06:39:48.614Z,3.75
2018-01-18T06:40:48.826Z,3.76
2018-01-18T06:41:48.669Z,3.77
2018-01-18T06:42:48.643Z,3.78
2018-01-18T06:43:48.621Z,3.79
2018-01-18T06:44:48.640Z,3.79
2018-01-18T06:45:48.875Z,3.8
2018-01-18T06:46:48.638Z,3.8
2018-01-18T06:47:48.756Z,3.8
2018-01-18T06:48:48.801Z,3.81
2018-01-18T06:49:48.918Z,3.81
2018-01-18T06:50:48.660Z,3.8
2018-01-18T06:51:48.605Z,3.81
2018-01-18T06:52:48.654Z,3.82
2018-01-18T06:53:48.629Z,3.82
2018-01-18T06:54:48.649Z,3.84
2018-01-18T06:55:48.626Z,3.82
2018-01-18T06:56:48.682Z,3.83
2018-01-18T06:57:48.702Z,3.81
2018-01-18T06:58:48.687Z,3.83
2018-01-18T06:59:48.678Z,3.84
2018-01-18T07:00:48.692Z,3.85
2018-01-18T07:01:48.694Z,3.85
2018-01-18T07:02:48.773Z,3.86
2018-01-18T07:03:48.708Z,3.86
2018-01-18T07:04:48.682Z,3.87
2018-01-18T07:05:48.757Z,3.87
2018-01-18T07:06:48.695Z,3.87
2018-01-18T07:07:48.710Z,3.87
2018-01-18T07:08:48.715Z,3.89
2018-01-18T07:09:48.674Z,3.88
2018-01-18T07:10:48.682Z,3.89
2018-01-18T07:11:48.660Z,3.88
2018-01-18T07:12:48.700Z,3.89
2018-01-18T07:13:48.688Z,3.89
2018-01-18T07:14:48.665Z,3.9
2018-01-18T07:15:48.673Z,3.89
2018-01-18T07:16:48.678Z,3.91
2018-01-18T07:17:48.708Z,3.92
2018-01-18T07:18:48.769Z,3.92
2018-01-18T07:19:48.662Z,3.93
2018-01-18T07:20:48.682Z,3.93
2018-01-18T07:21:48.690Z,3.94
2018-01-18T07:22:48.708Z,3.95
2018-01-18T07:23:48.704Z,3.95
2018-01-18T07:24:48.662Z,3.97
2018-01-18T07:25:48.668Z,3.97
2018-01-18T07:26:48.762Z,3.98
2018-01-18T07:27:48.693Z,3.98
2018-01-18T07:28:48.748Z,3.99
2018-01-18T07:29:48.711Z,3.99
2018-01-18T07:30:48.729Z,3.98
2018-01-18T07:31:48.699Z,3.98
2018-01-18T07:32:48.707Z,3.99
2018-01-18T07:33:48.736Z,4.01
2018-01-18T07:34:48.730Z,4.03
2018-01-18T07:35:48.714Z,4.04
2018-01-18T07:36:48.745Z,4.02
2018-01-18T07:37:48.697Z,4.03
2018-01-18T07:38:48.688Z,4.05
2018-01-18T07:39:48.761Z,4.07
2018-01-18T07:40:48.747Z,4.07
2018-01-18T07:41:48.713Z,4.07
2018-01-18T07:42:48.708Z,4.05
2018-01-18T07:43:48.714Z,4.06
2018-01-18T07:44:48.799Z,4.07
2018-01-18T07:45:48.728Z,4.07
2018-01-18T07:46:48.711Z,4.07
2018-01-18T07:47:48.708Z,4.08
2018-01-18T07:48:48.702Z,4.09
2018-01-18T07:49:48.750Z,4.1
2018-01-18T07:50:48.726Z,4.09
2018-01-18T07:51:48.704Z,4.11
2018-01-18T07:52:48.720Z,4.11
2018-01-18T07:53:48.715Z,4.11
2018-01-18T07:54:48.737Z,4.12
2018-01-18T07:55:48.784Z,4.14
2018-01-18T07:56:48.841Z,4.15
2018-01-18T07:57:48.776Z,4.15
2018-01-18T07:58:48.806Z,4.16
2018-01-18T07:59:48.865Z,4.16
2018-01-18T08:00:48.768Z,4.15
2018-01-18T08:01:48.788Z,4.16
2018-01-18T08:02:48.778Z,4.17
2018-01-18T08:03:48.806Z,4.19
2018-01-18T08:04:48.987Z,4.2
2018-01-18T08:05:48.774Z,4.23
2018-01-18T08:06:48.809Z,4.24
2018-01-18T08:07:48.764Z,4.24
2018-01-18T08:08:48.772Z,4.24
2018-01-18T08:09:48.862Z,4.24
2018-01-18T08:10:48.765Z,4.23
2018-01-18T08:11:48.812Z,4.24
2018-01-18T08:12:48.787Z,4.24
2018-01-18T08:13:48.785Z,4.25
2018-01-18T08:14:48.815Z,4.27
2018-01-18T08:15:48.786Z,4.27
2018-01-18T08:16:48.806Z,4.29
2018-01-18T08:17:48.768Z,4.3
2018-01-18T08:18:48.895Z,4.32
2018-01-18T08:19:49.036Z,4.32
2018-01-18T08:20:48.801Z,4.32
2018-01-18T08:21:48.782Z,4.32
2018-01-18T08:22:48.783Z,4.33
2018-01-18T08:23:48.762Z,4.35
2018-01-18T08:24:48.843Z,4.37
2018-01-18T08:25:48.805Z,4.39
2018-01-18T08:26:48.893Z,4.4
2018-01-18T08:27:48.847Z,4.4
2018-01-18T08:28:48.878Z,4.4
2018-01-18T08:29:48.892Z,4.39
2018-01-18T08:30:48.905Z,4.41
2018-01-18T08:31:48.992Z,4.42
2018-01-18T08:32:48.900Z,4.43
2018-01-18T08:33:48.856Z,4.43
2018-01-18T08:34:48.873Z,4.43
2018-01-18T08:35:48.917Z,4.43
2018-01-18T08:36:48.878Z,4.44
2018-01-18T08:37:48.870Z,4.44
2018-01-18T08:38:48.893Z,4.44
2018-01-18T08:39:48.885Z,4.45
2018-01-18T08:40:48.895Z,4.44
2018-01-18T08:41:48.869Z,4.44
2018-01-18T08:42:48.888Z,4.47
2018-01-18T08:43:48.872Z,4.47
2018-01-18T08:44:48.901Z,4.47
2018-01-18T08:45:48.916Z,4.49
2018-01-18T08:46:48.875Z,4.48
2018-01-18T08:47:48.863Z,4.5
2018-01-18T08:48:48.888Z,4.5
2018-01-18T08:49:48.890Z,4.51
2018-01-18T08:50:49.405Z,4.51
2018-01-18T08:51:48.870Z,4.52
2018-01-18T08:52:48.864Z,4.53
2018-01-18T08:53:48.869Z,4.56
2018-01-18T08:54:48.886Z,4.58
2018-01-18T08:55:48.911Z,4.57
2018-01-18T08:56:48.960Z,4.6
2018-01-18T08:57:48.932Z,4.63
2018-01-18T08:58:48.913Z,4.63
2018-01-18T08:59:48.927Z,4.64
2018-01-18T09:00:48.950Z,4.64
2018-01-18T09:01:48.921Z,4.65
2018-01-18T09:02:48.923Z,4.65
2018-01-18T09:03:48.941Z,4.66
2018-01-18T09:04:48.934Z,4.68
2018-01-18T09:05:48.998Z,4.69
2018-01-18T09:06:48.931Z,4.71
2018-01-18T09:07:48.939Z,4.72
2018-01-18T09:08:48.930Z,4.73
2018-01-18T09:09:48.909Z,4.8
2018-01-18T09:10:49.046Z,4.82
2018-01-18T09:11:49.071Z,4.84
2018-01-18T09:12:48.924Z,4.89
2018-01-18T09:13:48.961Z,4.93
2018-01-18T09:14:48.924Z,4.96
2018-01-18T09:15:48.912Z,4.97
2018-01-18T09:16:48.976Z,4.97
2018-01-18T09:17:48.955Z,5.01
2018-01-18T09:18:48.917Z,5.06
2018-01-18T09:19:48.984Z,5.09
2018-01-18T09:20:48.935Z,5.13
2018-01-18T09:21:49.237Z,5.12
2018-01-18T09:22:48.925Z,5.16
2018-01-18T09:23:48.933Z,5.25
2018-01-18T09:24:49.000Z,5.26
2018-01-18T09:25:48.943Z,5.3
2018-01-18T09:26:49.055Z,5.33
2018-01-18T09:27:49.077Z,5.35
2018-01-18T09:28:49.016Z,5.38
2018-01-18T09:29:48.985Z,5.38
2018-01-18T09:30:48.994Z,5.4
2018-01-18T09:31:49.122Z,5.44
2018-01-18T09:32:48.998Z,5.46
2018-01-18T09:33:48.965Z,5.49
2018-01-18T09:34:49.008Z,5.54
2018-01-18T09:35:48.967Z,5.62
2018-01-18T09:36:48.998Z,5.64
2018-01-18T09:37:49.272Z,5.63
2018-01-18T09:38:48.963Z,5.65
2018-01-18T09:39:48.974Z,5.72
2018-01-18T09:40:49.012Z,5.73
2018-01-18T09:41:48.996Z,5.74
2018-01-18T09:42:49.050Z,5.76
2018-01-18T09:43:48.983Z,5.78
2018-01-18T09:44:49.010Z,5.77
2018-01-18T09:45:48.971Z,5.79
2018-01-18T09:46:49.022Z,5.81
2018-01-18T09:47:49.066Z,5.81
2018-01-18T09:48:48.989Z,5.86
2018-01-18T09:49:48.977Z,5.9
2018-01-18T09:50:48.985Z,5.93
2018-01-18T09:51:48.964Z,5.96
2018-01-18T09:52:49.101Z,5.96
2018-01-18T09:53:49.085Z,6.01
2018-01-18T09:54:48.954Z,6.03
2018-01-18T09:55:48.994Z,6.1
2018-01-18T09:56:49.058Z,6.08
2018-01-18T09:57:49.094Z,6.11
2018-01-18T09:58:49.057Z,6.09
2018-01-18T09:59:49.041Z,6.11
2018-01-18T10:00:49.088Z,6.1
2018-01-18T10:01:49.063Z,6.13
2018-01-18T10:02:49.095Z,6.16
2018-01-18T10:03:49.092Z,6.16
2018-01-18T10:04:49.011Z,6.16
2018-01-18T10:05:49.071Z,6.16
2018-01-18T10:06:49.038Z,6.17
2018-01-18T10:07:49.076Z,6.2
2018-01-18T10:08:49.080Z,6.18
2018-01-18T10:09:49.080Z,6.17
2018-01-18T10:10:49.025Z,6.23
2018-01-18T10:11:49.071Z,6.25
2018-01-18T10:12:49.047Z,6.25
2018-01-18T10:13:49.163Z,6.28
2018-01-18T10:14:49.047Z,6.26
2018-01-18T10:15:49.027Z,6.26
2018-01-18T10:16:49.030Z,6.3
2018-01-18T10:17:49.018Z,6.29
2018-01-18T10:18:49.062Z,6.32
2018-01-18T10:19:49.082Z,6.31
2018-01-18T10:20:49.082Z,6.33
2018-01-18T10:21:49.075Z,6.33
2018-01-18T10:22:49.033Z,6.33
2018-01-18T10:23:49.070Z,6.34
2018-01-18T10:24:49.129Z,6.39
2018-01-18T10:25:49.031Z,6.42
2018-01-18T10:26:49.180Z,6.42
2018-01-18T10:27:49.134Z,6.43
2018-01-18T10:28:49.122Z,6.45
2018-01-18T10:29:49.155Z,6.53
2018-01-18T10:30:49.110Z,6.51
2018-01-18T10:31:49.120Z,6.55
2018-01-18T10:32:49.088Z,6.56
2018-01-18T10:33:49.121Z,6.6
2018-01-18T10:34:49.128Z,6.65
2018-01-18T10:35:50.667Z,6.72
2018-01-18T10:36:49.137Z,6.78
2018-01-18T10:37:49.106Z,6.83
2018-01-18T10:38:49.112Z,6.84
2018-01-18T10:39:49.120Z,6.88
2018-01-18T10:40:49.113Z,6.94
2018-01-18T10:41:49.174Z,6.98
2018-01-18T10:42:49.130Z,7.03
2018-01-18T10:43:49.154Z,7.08
2018-01-18T10:44:49.119Z,7.08
2018-01-18T10:45:49.126Z,7.12
2018-01-18T10:46:49.226Z,7.15
2018-01-18T10:47:49.130Z,7.15
2018-01-18T10:48:49.120Z,7.15
2018-01-18T10:49:49.121Z,7.17
2018-01-18T10:50:49.102Z,7.14
2018-01-18T10:51:49.250Z,7.18
2018-01-18T10:52:49.199Z,7.15
2018-01-18T10:53:49.108Z,7.17
2018-01-18T10:54:49.150Z,7.18
2018-01-18T10:55:49.108Z,7.22
2018-01-18T10:58:49.514Z,7.31
2018-01-18T10:59:49.186Z,7.31
2018-01-18T11:00:49.197Z,7.33
2018-01-18T11:01:49.203Z,7.34
2018-01-18T11:02:49.167Z,7.36
2018-01-18T11:03:49.240Z,7.36
2018-01-18T11:04:49.220Z,7.41
2018-01-18T11:05:49.175Z,7.46
2018-01-18T11:06:49.200Z,7.51
2018-01-18T11:07:49.168Z,7.58
2018-01-18T11:08:49.211Z,7.6
2018-01-18T11:09:49.162Z,7.64
2018-01-18T11:10:49.190Z,7.6
2018-01-18T11:11:49.169Z,7.67
2018-01-18T11:12:49.192Z,7.72
2018-01-18T11:13:49.324Z,7.76
2018-01-18T11:14:49.230Z,7.76
2018-01-18T11:15:49.304Z,7.78
2018-01-18T11:16:49.181Z,7.83
2018-01-18T11:17:49.214Z,7.82
2018-01-18T11:18:49.170Z,7.88
2018-01-18T11:19:49.213Z,7.88
2018-01-18T11:20:49.193Z,7.87
2018-01-18T11:21:49.189Z,7.87
2018-01-18T11:22:49.168Z,7.87
2018-01-18T11:23:49.174Z,7.84
2018-01-18T11:24:49.271Z,7.82
2018-01-18T11:25:49.166Z,7.81
2018-01-18T11:26:49.163Z,7.79
2018-01-18T11:27:49.179Z,7.74
2018-01-18T11:28:49.291Z,7.71
2018-01-18T11:29:48.242Z,7.68
2018-01-18T11:30:48.289Z,7.67
2018-01-18T11:31:48.285Z,7.66
2018-01-18T11:32:48.277Z,7.66
2018-01-18T11:33:48.249Z,7.68
2018-01-18T11:34:48.228Z,7.68
2018-01-18T11:35:48.306Z,7.67
2018-01-18T11:36:48.271Z,7.66
2018-01-18T11:37:48.380Z,7.69
2018-01-18T11:38:48.296Z,7.74
2018-01-18T11:39:48.494Z,7.79
2018-01-18T11:40:48.576Z,7.79
2018-01-18T11:41:48.287Z,7.86
2018-01-18T11:42:48.284Z,7.88
2018-01-18T11:43:48.263Z,7.9
2018-01-18T11:44:48.260Z,8.01
2018-01-18T11:45:48.278Z,8.06
2018-01-18T11:46:48.254Z,8.1
2018-01-18T11:47:48.294Z,8.18
2018-01-18T11:48:48.313Z,8.35
2018-01-18T11:49:48.291Z,8.34
2018-01-18T11:50:48.505Z,8.38
2018-01-18T11:51:48.283Z,8.45
2018-01-18T11:52:48.261Z,8.51
2018-01-18T11:53:48.268Z,8.61
2018-01-18T11:54:48.267Z,8.64
2018-01-18T11:55:48.333Z,8.69
2018-01-18T11:56:48.261Z,8.69
2018-01-18T11:57:48.245Z,8.66
2018-01-18T11:58:48.265Z,8.67
2018-01-18T11:59:48.373Z,8.75
2018-01-18T12:00:48.395Z,8.77
2018-01-18T12:01:48.355Z,8.79
2018-01-18T12:02:48.382Z,8.81
2018-01-18T12:03:48.408Z,8.86
2018-01-18T12:04:48.353Z,8.89
2018-01-18T12:05:48.311Z,8.92
2018-01-18T12:06:49.214Z,8.95
2018-01-18T12:07:48.335Z,8.96
2018-01-18T12:08:48.308Z,8.96
2018-01-18T12:09:48.328Z,8.97
2018-01-18T12:10:48.321Z,9.05
2018-01-18T12:11:48.417Z,9.03
2018-01-18T12:12:48.311Z,9.03
2018-01-18T12:13:48.337Z,9
2018-01-18T12:14:48.307Z,9
2018-01-18T12:15:57.544Z,8.96
2018-01-18T12:16:48.398Z,8.97
2018-01-18T12:17:48.331Z,8.94
2018-01-18T12:18:48.406Z,8.9
2018-01-18T12:19:48.346Z,8.88
2018-01-18T12:20:48.300Z,8.82
2018-01-18T12:21:48.524Z,8.76
2018-01-18T12:22:48.333Z,8.71
2018-01-18T12:23:48.333Z,8.65
2018-01-18T12:24:48.337Z,8.59
2018-01-18T12:25:48.377Z,8.54
2018-01-18T12:26:48.342Z,8.47
2018-01-18T12:27:48.398Z,8.44
2018-01-18T12:28:48.315Z,8.4
2018-01-18T12:29:48.386Z,8.37
2018-01-18T12:30:48.412Z,8.34
2018-01-18T12:31:48.376Z,8.29
2018-01-18T12:32:48.408Z,8.27
2018-01-18T12:33:48.403Z,8.22
2018-01-18T12:34:48.376Z,8.18
2018-01-18T12:35:48.432Z,8.14
2018-01-18T12:36:48.370Z,8.1
2018-01-18T12:37:48.458Z,8.07
2018-01-18T12:38:48.411Z,8.04
2018-01-18T12:39:48.390Z,8.03
2018-01-18T12:40:48.380Z,7.99
2018-01-18T12:41:48.460Z,7.97
2018-01-18T12:42:48.410Z,7.96
2018-01-18T12:43:48.489Z,7.95
2018-01-18T12:44:48.401Z,7.93
2018-01-18T12:45:48.378Z,7.92
2018-01-18T12:46:48.393Z,7.89
2018-01-18T12:47:48.423Z,7.87
2018-01-18T12:48:48.405Z,7.86
2018-01-18T12:49:48.383Z,7.86
2018-01-18T12:50:48.406Z,7.83
2018-01-18T12:51:48.429Z,7.81
2018-01-18T12:52:48.420Z,7.8
2018-01-18T12:53:48.842Z,7.79
2018-01-18T12:54:48.394Z,7.78
2018-01-18T12:55:48.387Z,7.76
2018-01-18T12:56:48.360Z,7.75
2018-01-18T12:57:48.365Z,7.72
2018-01-18T12:58:48.421Z,7.71
2018-01-18T12:59:48.576Z,7.71
2018-01-18T13:00:48.436Z,7.7
2018-01-18T13:01:48.440Z,7.67
2018-01-18T13:02:48.399Z,7.68
2018-01-18T13:03:48.517Z,7.65
2018-01-18T13:04:48.401Z,7.65
2018-01-18T13:05:48.430Z,7.65
2018-01-18T13:06:48.447Z,7.64
2018-01-18T13:07:48.499Z,7.64
2018-01-18T13:08:48.464Z,7.65
2018-01-18T13:09:48.534Z,7.65
2018-01-18T13:10:48.440Z,7.64
2018-01-18T13:11:48.463Z,7.65
2018-01-18T13:12:48.438Z,7.66
2018-01-18T13:13:48.440Z,7.67
2018-01-18T13:14:48.469Z,7.68
2018-01-18T13:15:48.486Z,7.68
2018-01-18T13:16:48.419Z,7.68
2018-01-18T13:17:48.464Z,7.71
2018-01-18T13:18:48.471Z,7.72
2018-01-18T13:19:48.441Z,7.74
2018-01-18T13:20:48.459Z,7.75
2018-01-18T13:21:48.465Z,7.75
2018-01-18T13:22:48.441Z,7.77
2018-01-18T13:23:48.446Z,7.8
2018-01-18T13:24:48.444Z,7.83
2018-01-18T13:25:48.483Z,7.84